createdAt,value
2023-03-11T00:00:09.296Z,4.5
2023-03-11T00:01:09.324Z,4.5
2023-03-11T00:02:09.395Z,4.5
2023-03-11T00:03:09.401Z,4.5
2023-03-11T00:04:09.447Z,4.5
2023-03-11T00:05:09.529Z,4.5
2023-03-11T00:06:09.509Z,4.5
2023-03-11T00:07:09.561Z,4.42857
2023-03-11T00:08:09.585Z,4.42857
2023-03-11T00:09:09.622Z,4.42857
2023-03-11T00:10:09.644Z,4.42857
2023-03-11T00:11:09.673Z,4.42857
2023-03-11T00:12:09.724Z,4.35714
2023-03-11T00:13:09.745Z,4.42857
2023-03-11T00:14:09.797Z,4.42857
2023-03-11T00:15:09.825Z,4.35714
2023-03-11T00:16:09.928Z,4.35714
2023-03-11T00:17:09.898Z,4.35714
2023-03-11T00:18:09.934Z,4.35714
2023-03-11T00:19:09.963Z,4.35714
2023-03-11T00:20:10.004Z,4.35714
2023-03-11T00:21:10.049Z,4.35714
2023-03-11T00:22:10.071Z,4.35714
2023-03-11T00:23:10.115Z,4.35714
2023-03-11T00:24:10.149Z,4.35714
2023-03-11T00:25:10.178Z,4.35714
2023-03-11T00:26:10.246Z,4.35714
2023-03-11T00:27:10.245Z,4.35714
2023-03-11T00:28:10.286Z,4.35714
2023-03-11T00:29:10.319Z,4.28571
2023-03-11T00:30:10.349Z,4.28571
2023-03-11T00:31:10.405Z,4.28571
2023-03-11T00:32:10.413Z,4.28571
2023-03-11T00:33:10.470Z,4.21429
2023-03-11T00:34:10.485Z,4.21429
2023-03-11T00:35:10.511Z,4.21429
2023-03-11T00:36:10.573Z,4.21429
2023-03-11T00:37:10.585Z,4.14286
2023-03-11T00:38:10.623Z,4.14286
2023-03-11T00:39:10.664Z,4.07143
2023-03-11T00:40:10.690Z,4.07143
2023-03-11T00:41:10.725Z,4
2023-03-11T00:42:10.759Z,4
2023-03-11T00:43:10.793Z,4
2023-03-11T00:44:10.821Z,4
2023-03-11T00:45:10.873Z,3.92857
2023-03-11T00:46:10.948Z,3.92857
2023-03-11T00:47:10.933Z,3.92857
2023-03-11T00:48:10.972Z,3.92857
2023-03-11T00:49:11.017Z,3.92857
2023-03-11T00:50:11.045Z,3.92857
2023-03-11T00:51:11.078Z,3.92857
2023-03-11T00:52:11.110Z,3.92857
2023-03-11T00:53:11.149Z,3.85714
2023-03-11T00:54:11.177Z,3.85714
2023-03-11T00:55:11.219Z,3.85714
2023-03-11T00:56:11.253Z,3.85714
2023-03-11T00:57:11.276Z,3.78571
2023-03-11T00:58:11.327Z,3.78571
2023-03-11T00:59:11.370Z,3.78571
2023-03-11T01:00:11.389Z,3.78571
2023-03-11T01:01:11.447Z,3.71429
2023-03-11T01:02:11.461Z,3.71429
2023-03-11T01:03:11.494Z,3.71429
2023-03-11T01:04:11.590Z,3.71429
2023-03-11T01:05:11.563Z,3.78571
2023-03-11T01:06:11.616Z,3.71429
2023-03-11T01:07:11.674Z,3.71429
2023-03-11T01:08:11.692Z,3.71429
2023-03-11T01:09:11.741Z,3.71429
2023-03-11T01:10:11.764Z,3.71429
2023-03-11T01:11:11.798Z,3.71429
2023-03-11T01:12:11.838Z,3.71429
2023-03-11T01:13:11.869Z,3.71429
2023-03-11T01:14:11.902Z,3.71429
2023-03-11T01:15:11.945Z,3.71429
2023-03-11T01:16:12.023Z,3.71429
2023-03-11T01:17:12.024Z,3.71429
2023-03-11T01:18:12.058Z,3.71429
2023-03-11T01:19:12.088Z,3.71429
2023-03-11T01:20:12.146Z,3.71429
2023-03-11T01:21:12.166Z,3.71429
2023-03-11T01:22:12.205Z,3.71429
2023-03-11T01:23:12.234Z,3.71429
2023-03-11T01:24:12.271Z,3.71429
2023-03-11T01:25:12.303Z,3.71429
2023-03-11T01:26:12.336Z,3.71429
2023-03-11T01:27:12.381Z,3.71429
2023-03-11T01:28:12.408Z,3.64286
2023-03-11T01:29:12.443Z,3.71429
2023-03-11T01:30:12.477Z,3.64286
2023-03-11T01:31:12.648Z,3.64286
2023-03-11T01:32:12.613Z,3.64286
2023-03-11T01:33:12.589Z,3.64286
2023-03-11T01:34:12.630Z,3.64286
2023-03-11T01:35:12.662Z,3.64286
2023-03-11T01:36:12.706Z,3.64286
2023-03-11T01:37:12.729Z,3.57143
2023-03-11T01:38:12.768Z,3.57143
2023-03-11T01:39:12.802Z,3.57143
2023-03-11T01:40:12.861Z,3.57143
2023-03-11T01:41:12.880Z,3.57143
2023-03-11T01:42:12.923Z,3.57143
2023-03-11T01:43:12.942Z,3.57143
2023-03-11T01:44:12.978Z,3.57143
2023-03-11T01:45:13.026Z,3.57143
2023-03-11T01:46:13.147Z,3.57143
2023-03-11T01:47:13.116Z,3.5
2023-03-11T01:48:13.149Z,3.5
2023-03-11T01:49:13.171Z,3.5
2023-03-11T01:50:13.195Z,3.5
2023-03-11T01:51:13.234Z,3.5
2023-03-11T01:52:13.293Z,3.5
2023-03-11T01:53:13.298Z,3.5
2023-03-11T01:54:13.346Z,3.5
2023-03-11T01:55:13.392Z,3.5
2023-03-11T01:56:13.450Z,3.5
2023-03-11T01:57:13.455Z,3.5
2023-03-11T01:58:13.490Z,3.5
2023-03-11T01:59:13.517Z,3.5
2023-03-11T02:00:13.568Z,3.5
2023-03-11T02:01:13.610Z,3.5
2023-03-11T02:02:13.712Z,3.5
2023-03-11T02:03:13.745Z,3.5
2023-03-11T02:04:13.711Z,3.5
2023-03-11T02:05:13.746Z,3.5
2023-03-11T02:06:13.773Z,3.42857
2023-03-11T02:07:13.810Z,3.42857
2023-03-11T02:08:13.842Z,3.42857
2023-03-11T02:09:13.881Z,3.42857
2023-03-11T02:10:13.916Z,3.42857
2023-03-11T02:11:13.954Z,3.42857
2023-03-11T02:12:13.993Z,3.42857
2023-03-11T02:13:14.030Z,3.42857
2023-03-11T02:14:14.084Z,3.42857
2023-03-11T02:15:14.107Z,3.42857
2023-03-11T02:16:14.254Z,3.35714
2023-03-11T02:17:14.183Z,3.35714
2023-03-11T02:18:14.223Z,3.35714
2023-03-11T02:19:14.260Z,3.35714
2023-03-11T02:20:14.296Z,3.35714
2023-03-11T02:21:14.328Z,3.35714
2023-03-11T02:22:14.362Z,3.35714
2023-03-11T02:23:14.398Z,3.35714
2023-03-11T02:24:14.467Z,3.35714
2023-03-11T02:25:14.466Z,3.35714
2023-03-11T02:26:14.501Z,3.35714
2023-03-11T02:27:14.540Z,3.35714
2023-03-11T02:28:14.574Z,3.35714
2023-03-11T02:29:14.605Z,3.35714
2023-03-11T02:30:14.641Z,3.35714
2023-03-11T02:31:14.736Z,3.35714
2023-03-11T02:32:14.816Z,3.35714
2023-03-11T02:33:14.754Z,3.35714
2023-03-11T02:34:14.782Z,3.35714
2023-03-11T02:35:14.815Z,3.35714
2023-03-11T02:36:14.841Z,3.35714
2023-03-11T02:37:14.881Z,3.35714
2023-03-11T02:38:14.925Z,3.35714
2023-03-11T02:39:14.951Z,3.35714
2023-03-11T02:40:14.983Z,3.35714
2023-03-11T02:41:15.019Z,3.35714
2023-03-11T02:42:15.046Z,3.35714
2023-03-11T09:29:49.575Z,5.92857
2023-03-11T09:30:49.586Z,5.85714
2023-03-11T09:31:49.648Z,5.92857
2023-03-11T09:32:49.789Z,5.92857
2023-03-11T09:33:49.691Z,5.92857
2023-03-11T09:34:49.731Z,5.85714
2023-03-11T09:35:50.002Z,5.85714
2023-03-11T09:36:49.826Z,5.85714
2023-03-11T09:37:49.854Z,5.78571
2023-03-11T09:38:49.909Z,5.71429
2023-03-11T09:39:49.924Z,5.71429
2023-03-11T09:40:49.970Z,5.64286
2023-03-11T09:41:57.985Z,5.64286
2023-03-11T09:42:50.047Z,5.64286
2023-03-11T09:43:50.092Z,5.57143
2023-03-11T09:44:50.130Z,5.57143
2023-03-11T09:45:50.160Z,5.57143
2023-03-11T09:46:50.244Z,5.5
2023-03-11T09:47:50.231Z,5.5
2023-03-11T09:48:50.263Z,5.5
2023-03-11T09:49:50.303Z,5.42857
2023-03-11T09:50:50.336Z,5.42857
2023-03-11T09:51:50.379Z,5.42857
2023-03-11T09:52:50.414Z,5.42857
2023-03-11T09:53:50.447Z,5.35714
2023-03-11T09:54:50.495Z,5.35714
2023-03-11T09:55:50.529Z,5.35714
2023-03-11T09:56:50.564Z,5.35714
2023-03-11T09:57:50.591Z,5.28571
2023-03-11T09:58:50.700Z,5.28571
2023-03-11T09:59:50.666Z,5.28571
2023-03-11T10:00:50.706Z,5.28571
2023-03-11T10:01:50.810Z,5.28571
2023-03-11T10:02:50.962Z,5.28571
2023-03-11T10:03:50.827Z,5.21429
2023-03-11T10:04:50.861Z,5.21429
2023-03-11T10:05:50.896Z,5.21429
2023-03-11T10:06:50.936Z,5.14286
2023-03-11T10:07:50.966Z,5.14286
2023-03-11T10:08:51.007Z,5.14286
2023-03-11T10:09:51.044Z,5.14286
2023-03-11T10:10:51.090Z,5.14286
2023-03-11T10:11:51.120Z,5.14286
2023-03-11T10:12:51.163Z,5.14286
2023-03-11T10:13:51.204Z,5.14286
2023-03-11T10:14:51.241Z,5.14286
2023-03-11T10:15:51.275Z,5.21429
2023-03-11T10:16:51.340Z,5.21429
2023-03-11T10:17:51.361Z,5.21429
2023-03-11T10:18:51.394Z,5.21429
2023-03-11T10:19:51.430Z,5.21429
2023-03-11T10:20:51.500Z,5.21429
2023-03-11T10:21:51.489Z,5.28571
2023-03-11T10:22:51.527Z,5.28571
2023-03-11T10:23:51.573Z,5.28571
2023-03-11T10:24:51.602Z,5.35714
2023-03-11T10:25:51.635Z,5.35714
2023-03-11T10:26:51.673Z,5.42857
2023-03-11T10:27:51.725Z,5.42857
2023-03-11T10:28:51.775Z,5.42857
2023-03-11T10:29:51.795Z,5.5
2023-03-11T10:30:51.821Z,5.57143
2023-03-11T10:31:51.863Z,5.64286
2023-03-11T10:32:51.926Z,5.64286
2023-03-11T10:33:51.933Z,5.71429
2023-03-11T10:34:51.966Z,5.78571
2023-03-11T10:35:52.028Z,5.85714
2023-03-11T10:36:52.047Z,5.92857
2023-03-11T10:37:52.083Z,5.92857
2023-03-11T10:38:52.116Z,6
2023-03-11T10:39:52.151Z,6
2023-03-11T10:40:52.184Z,6
2023-03-11T10:41:52.217Z,6.07143
2023-03-11T10:42:52.257Z,6.07143
2023-03-11T10:43:52.282Z,6.14286
2023-03-11T10:44:52.733Z,6.14286
2023-03-11T10:45:52.417Z,6.21429
2023-03-11T10:46:52.424Z,6.28571
2023-03-11T10:47:52.447Z,6.28571
2023-03-11T10:48:52.470Z,6.28571
2023-03-11T10:49:52.529Z,6.35714
2023-03-11T10:50:52.538Z,6.35714
2023-03-11T10:51:52.583Z,6.42857
2023-03-11T10:52:52.606Z,6.42857
2023-03-11T10:53:52.641Z,6.5
2023-03-11T10:54:52.682Z,6.5
2023-03-11T10:55:52.726Z,6.5
2023-03-11T10:56:52.767Z,6.5
2023-03-11T10:57:52.790Z,6.5
2023-03-11T10:58:52.832Z,6.5
2023-03-11T10:59:52.869Z,6.42857
2023-03-11T11:00:52.936Z,6.42857
2023-03-11T11:01:52.946Z,6.42857
2023-03-11T11:02:52.988Z,6.35714
2023-03-11T11:03:53.035Z,6.35714
2023-03-11T11:04:53.059Z,6.28571
2023-03-11T11:05:53.095Z,6.21429
2023-03-11T11:06:53.137Z,6.21429
2023-03-11T11:07:53.173Z,6.21429
2023-03-11T11:08:53.202Z,6.21429
2023-03-11T11:09:53.244Z,6.21429
2023-03-11T11:10:53.284Z,6.21429
2023-03-11T11:11:53.312Z,6.21429
2023-03-11T11:12:53.344Z,6.21429
2023-03-11T11:13:53.383Z,6.21429
2023-03-11T11:14:53.410Z,6.21429
2023-03-11T11:15:53.454Z,6.21429
2023-03-11T11:16:53.552Z,6.28571
2023-03-11T11:17:53.532Z,6.35714
2023-03-11T11:18:53.568Z,6.35714
2023-03-11T11:19:53.613Z,6.42857
2023-03-11T11:20:53.650Z,6.42857
2023-03-11T11:21:53.688Z,6.5
2023-03-11T11:22:53.722Z,6.57143
2023-03-11T11:23:54.031Z,6.64286
2023-03-11T11:24:53.907Z,6.64286
2023-03-11T11:25:53.823Z,6.71429
2023-03-11T11:26:53.862Z,6.78571
2023-03-11T11:27:53.904Z,6.78571
2023-03-11T11:28:53.927Z,6.85714
2023-03-11T11:29:53.955Z,6.92857
2023-03-11T11:30:54.038Z,7
2023-03-11T11:31:54.039Z,7.07143
2023-03-11T11:32:54.183Z,7.07143
2023-03-11T11:33:54.104Z,7.14286
2023-03-11T11:34:54.148Z,7.21429
2023-03-11T11:35:54.281Z,7.21429
2023-03-11T11:36:54.211Z,7.21429
2023-03-11T11:37:54.248Z,7.21429
2023-03-11T11:38:54.287Z,7.14286
2023-03-11T11:39:54.315Z,7.14286
2023-03-11T11:40:54.345Z,7.14286
2023-03-11T11:41:54.384Z,7.07143
2023-03-11T11:42:54.417Z,7.07143
2023-03-11T11:43:54.450Z,7.07143
2023-03-11T11:44:54.476Z,7
2023-03-11T11:45:54.537Z,7
2023-03-11T11:46:54.546Z,7
2023-03-11T11:47:54.581Z,6.92857
2023-03-11T11:48:54.612Z,6.92857
2023-03-11T11:49:54.642Z,6.85714
2023-03-11T11:50:54.680Z,6.78571
2023-03-11T11:51:54.717Z,6.71429
2023-03-11T11:52:54.754Z,6.64286
2023-03-11T11:53:54.793Z,6.64286
2023-03-11T11:54:54.830Z,6.57143
2023-03-11T11:55:54.870Z,6.5
2023-03-11T11:56:54.910Z,6.5
2023-03-11T11:57:54.940Z,6.5
2023-03-11T11:58:54.977Z,6.42857
2023-03-11T11:59:57.321Z,6.42857
2023-03-11T12:00:55.030Z,6.42857
2023-03-11T12:01:55.070Z,6.42857
2023-03-11T12:02:55.101Z,6.42857
2023-03-11T12:03:55.232Z,6.5
2023-03-11T12:04:55.183Z,6.5
2023-03-11T12:05:57.889Z,6.57143
2023-03-11T12:06:55.249Z,6.57143
2023-03-11T12:07:55.290Z,6.64286
2023-03-11T12:08:55.315Z,6.64286
2023-03-11T12:09:55.340Z,6.64286
2023-03-11T12:10:55.375Z,6.71429
2023-03-11T12:11:55.425Z,6.78571
2023-03-11T12:12:55.443Z,6.78571
2023-03-11T12:13:55.483Z,6.78571
2023-03-11T12:14:55.527Z,6.78571
2023-03-11T12:15:55.630Z,6.85714
2023-03-11T12:16:55.604Z,6.85714
2023-03-11T12:17:55.637Z,6.85714
2023-03-11T12:18:55.657Z,6.78571
2023-03-11T12:19:55.699Z,6.78571
2023-03-11T12:20:55.737Z,6.78571
2023-03-11T12:21:55.802Z,6.71429
2023-03-11T12:22:55.799Z,6.71429
2023-03-11T12:23:55.834Z,6.64286
2023-03-11T12:24:55.874Z,6.64286
2023-03-11T12:25:55.913Z,6.64286
2023-03-11T12:26:56.007Z,6.64286
2023-03-11T12:27:55.994Z,6.64286
2023-03-11T12:28:56.030Z,6.64286
2023-03-11T12:29:56.065Z,6.57143
2023-03-11T12:30:56.186Z,6.57143
2023-03-11T12:31:56.142Z,6.57143
2023-03-11T12:32:56.216Z,6.5
2023-03-11T12:33:56.197Z,6.5
2023-03-11T12:34:56.248Z,6.5
2023-03-11T12:35:56.368Z,6.5
2023-03-11T12:36:56.309Z,6.5
2023-03-11T12:37:56.349Z,6.5
2023-03-11T12:38:56.382Z,6.5
2023-03-11T12:39:56.418Z,6.5
2023-03-11T12:40:56.468Z,6.5
2023-03-11T12:41:56.501Z,6.5
2023-03-11T12:42:56.532Z,6.42857
2023-03-11T12:43:56.569Z,6.42857
2023-03-11T12:44:56.601Z,6.42857
2023-03-11T12:45:56.639Z,6.42857
2023-03-11T12:46:56.766Z,6.35714
2023-03-11T12:47:56.723Z,6.35714
2023-03-11T12:48:56.746Z,6.35714
2023-03-11T12:49:56.828Z,6.28571
2023-03-11T12:50:56.823Z,6.21429
2023-03-11T12:51:56.882Z,6.21429
2023-03-11T12:52:56.909Z,6.14286
2023-03-11T12:53:56.949Z,6.07143
2023-03-11T12:54:56.997Z,6
2023-03-11T12:55:57.018Z,6
2023-03-11T12:56:57.064Z,6
2023-03-11T12:57:57.083Z,6
2023-03-11T12:58:57.125Z,6
2023-03-11T12:59:57.158Z,5.92857
2023-03-11T13:00:57.183Z,5.92857
2023-03-11T13:01:57.256Z,5.85714
2023-03-11T13:02:57.296Z,5.85714
2023-03-11T13:03:57.299Z,5.85714
2023-03-11T13:04:57.326Z,5.85714
2023-03-11T13:05:57.357Z,5.85714
2023-03-11T13:06:57.399Z,5.92857
2023-03-11T13:07:57.435Z,5.92857
2023-03-11T13:08:57.467Z,6
2023-03-11T13:09:57.516Z,6
2023-03-11T13:10:57.559Z,6.07143
2023-03-11T13:11:57.594Z,6.07143
2023-03-11T13:12:57.638Z,6.07143
2023-03-11T13:13:57.674Z,6.07143
2023-03-11T13:14:57.704Z,6.07143
2023-03-11T13:15:57.854Z,6.07143
2023-03-11T13:16:57.773Z,6.07143
2023-03-11T13:17:57.801Z,6.07143
2023-03-11T13:18:57.840Z,6.07143
2023-03-11T13:19:57.868Z,6
2023-03-11T13:20:57.907Z,6
2023-03-11T13:21:57.951Z,5.92857
2023-03-11T13:22:57.977Z,5.92857
2023-03-11T13:23:58.013Z,5.85714
2023-03-11T13:24:58.045Z,5.92857
2023-03-11T13:25:58.093Z,5.92857
2023-03-11T13:26:58.121Z,5.92857
2023-03-11T13:27:58.158Z,6
2023-03-11T13:28:58.194Z,6.07143
2023-03-11T13:29:58.228Z,6.07143
2023-03-11T13:30:58.266Z,6.14286
2023-03-11T13:31:58.305Z,6.14286
2023-03-11T13:32:58.480Z,6.14286
2023-03-11T13:33:58.370Z,6.21429
2023-03-11T13:34:58.409Z,6.21429
2023-03-11T13:35:58.522Z,6.28571
2023-03-11T13:36:58.481Z,6.28571
2023-03-11T13:37:58.508Z,6.28571
2023-03-11T13:38:58.559Z,6.35714
2023-03-11T13:39:58.586Z,6.35714
2023-03-11T13:40:58.628Z,6.35714
2023-03-11T13:41:58.677Z,6.28571
2023-03-11T13:42:58.719Z,6.28571
2023-03-11T13:43:58.741Z,6.21429
2023-03-11T13:44:58.788Z,6.21429
2023-03-11T13:45:58.826Z,6.14286
2023-03-11T13:46:58.849Z,6.14286
2023-03-11T13:47:58.887Z,6.14286
2023-03-11T13:48:58.919Z,6.14286
2023-03-11T13:49:58.960Z,6.21429
2023-03-11T13:50:58.993Z,6.21429
2023-03-11T13:51:59.038Z,6.14286
2023-03-11T13:52:59.069Z,6.21429
2023-03-11T13:53:59.111Z,6.21429
2023-03-11T13:54:59.161Z,6.21429
2023-03-11T13:55:59.200Z,6.21429
2023-03-11T13:56:59.215Z,6.21429
2023-03-11T13:57:59.305Z,6.28571
2023-03-11T13:58:59.278Z,6.28571
2023-03-11T13:59:59.317Z,6.21429
2023-03-11T14:00:59.497Z,6.28571
2023-03-11T14:01:59.385Z,6.28571
2023-03-11T14:02:59.457Z,6.35714
2023-03-11T14:03:59.526Z,6.35714
2023-03-11T14:04:59.488Z,6.42857
2023-03-11T14:05:59.521Z,6.42857
2023-03-11T14:06:59.605Z,6.5
2023-03-11T14:07:59.590Z,6.5
2023-03-11T14:08:59.624Z,6.57143
2023-03-11T14:09:59.659Z,6.64286
2023-03-11T14:10:59.777Z,6.64286
2023-03-11T14:11:59.778Z,6.71429
2023-03-11T14:12:59.766Z,6.71429
2023-03-11T14:13:59.796Z,6.71429
2023-03-11T14:14:59.831Z,6.71429
2023-03-11T14:15:59.877Z,6.71429
2023-03-11T14:16:59.927Z,6.71429
2023-03-11T14:17:59.972Z,6.71429
2023-03-11T14:18:59.977Z,6.71429
2023-03-11T14:20:00.015Z,6.78571
2023-03-11T14:21:00.072Z,6.85714
2023-03-11T14:22:00.077Z,6.85714
2023-03-11T14:23:00.121Z,6.92857
2023-03-11T14:24:00.164Z,6.92857
2023-03-11T14:25:00.225Z,6.92857
2023-03-11T14:26:00.234Z,7
2023-03-11T14:27:00.254Z,7
2023-03-11T14:28:00.311Z,7
2023-03-11T14:29:00.330Z,7
2023-03-11T14:30:00.367Z,7
2023-03-11T14:31:00.413Z,7
2023-03-11T14:32:00.549Z,7.07143
2023-03-11T14:33:00.597Z,7.07143
2023-03-11T14:34:00.521Z,7.07143
2023-03-11T14:35:00.559Z,7.07143
2023-03-11T14:36:00.608Z,7
2023-03-11T14:37:00.625Z,7
2023-03-11T14:38:00.661Z,7
2023-03-11T14:39:00.691Z,7
2023-03-11T14:40:00.733Z,6.92857
2023-03-11T14:41:00.763Z,6.85714
2023-03-11T14:42:00.804Z,6.85714
2023-03-11T14:43:00.854Z,6.85714
2023-03-11T14:44:00.880Z,6.78571
2023-03-11T14:45:00.915Z,6.78571
2023-03-11T14:46:01.013Z,6.78571
2023-03-11T14:47:00.993Z,6.71429
2023-03-11T14:48:01.031Z,6.71429
2023-03-11T14:49:01.063Z,6.71429
2023-03-11T14:50:01.119Z,6.71429
2023-03-11T14:51:01.139Z,6.71429
2023-03-11T14:52:01.173Z,6.71429
2023-03-11T14:53:03.062Z,6.71429
2023-03-11T14:54:01.278Z,6.71429
2023-03-11T14:55:01.300Z,6.71429
2023-03-11T14:56:01.342Z,6.71429
2023-03-11T14:57:01.375Z,6.71429
2023-03-11T14:58:01.419Z,6.64286
2023-03-11T14:59:07.391Z,6.64286
2023-03-11T15:00:01.493Z,6.64286
2023-03-11T15:01:01.605Z,6.64286
2023-03-11T15:02:01.551Z,6.64286
2023-03-11T15:03:01.699Z,6.57143
2023-03-11T15:04:01.606Z,6.57143
2023-03-11T15:05:01.646Z,6.5
2023-03-11T15:06:01.683Z,6.5
2023-03-11T15:07:01.742Z,6.5
2023-03-11T15:08:01.761Z,6.5
2023-03-11T15:09:01.821Z,6.42857
2023-03-11T15:10:01.839Z,6.42857
2023-03-11T15:11:03.214Z,6.42857
2023-03-11T15:12:01.951Z,6.35714
2023-03-11T15:13:01.936Z,6.35714
2023-03-11T15:14:01.984Z,6.35714
2023-03-11T15:15:02.021Z,6.28571
2023-03-11T15:16:02.049Z,6.28571
2023-03-11T15:17:02.155Z,6.21429
2023-03-11T15:18:02.136Z,6.21429
2023-03-11T15:19:02.182Z,6.14286
2023-03-11T15:20:02.216Z,6.14286
2023-03-11T15:21:02.252Z,6.14286
2023-03-11T15:22:02.297Z,6.07143
2023-03-11T15:23:02.331Z,6.07143
2023-03-11T15:24:02.363Z,6.07143
2023-03-11T15:25:02.401Z,6.07143
2023-03-11T15:26:02.431Z,6
2023-03-11T15:27:02.477Z,6
2023-03-11T15:28:02.503Z,6
2023-03-11T15:29:02.534Z,6
2023-03-11T15:30:02.569Z,6
2023-03-11T15:31:02.679Z,6
2023-03-11T15:32:02.649Z,6
2023-03-11T15:33:02.682Z,6
2023-03-11T15:34:02.714Z,5.92857
2023-03-11T15:35:02.813Z,5.92857
2023-03-11T15:36:02.871Z,5.92857
2023-03-11T15:37:02.849Z,5.92857
2023-03-11T15:38:02.876Z,5.85714
2023-03-11T15:39:02.913Z,5.85714
2023-03-11T15:40:02.941Z,5.85714
2023-03-11T15:41:02.976Z,5.85714
2023-03-11T15:42:03.009Z,5.85714
2023-03-11T15:43:03.051Z,5.78571
2023-03-11T15:44:03.089Z,5.78571
2023-03-11T15:45:03.130Z,5.78571
2023-03-11T15:46:03.229Z,5.78571
2023-03-11T15:47:03.206Z,5.78571
2023-03-11T15:48:03.238Z,5.71429
2023-03-11T15:49:03.280Z,5.71429
2023-03-11T15:50:03.339Z,5.71429
2023-03-11T15:51:03.359Z,5.64286
2023-03-11T15:52:03.389Z,5.64286
2023-03-11T15:53:03.439Z,5.64286
2023-03-11T15:54:03.467Z,5.57143
2023-03-11T15:55:03.504Z,5.57143
2023-03-11T15:56:07.841Z,5.57143
2023-03-11T15:57:03.564Z,5.57143
2023-03-11T15:58:03.605Z,5.57143
2023-03-11T15:59:03.628Z,5.57143
2023-03-11T16:00:03.687Z,5.57143
2023-03-11T16:01:03.708Z,5.57143
2023-03-11T16:02:03.749Z,5.57143
2023-03-11T16:03:03.777Z,5.57143
2023-03-11T16:04:03.948Z,5.5
2023-03-11T16:05:03.975Z,5.5
2023-03-11T16:06:03.889Z,5.5
2023-03-11T16:07:08.237Z,5.5
2023-03-11T16:08:03.972Z,5.5
2023-03-11T16:09:04.007Z,5.5
2023-03-11T16:10:04.485Z,5.5
2023-03-11T16:11:04.080Z,5.5
2023-03-11T16:12:04.124Z,5.5
2023-03-11T16:13:04.143Z,5.5
2023-03-11T16:14:04.187Z,5.5
2023-03-11T16:15:04.264Z,5.5
2023-03-11T16:16:04.904Z,5.5
2023-03-11T16:17:04.290Z,5.5
2023-03-11T16:18:04.376Z,5.5
2023-03-11T16:19:04.375Z,5.5
2023-03-11T16:20:04.405Z,5.42857
2023-03-11T16:21:04.433Z,5.42857
2023-03-11T16:22:04.456Z,5.42857
2023-03-11T16:23:04.506Z,5.42857
2023-03-11T16:24:04.549Z,5.42857
2023-03-11T16:25:04.577Z,5.42857
2023-03-11T16:26:04.620Z,5.42857
2023-03-11T16:27:04.652Z,5.42857
2023-03-11T16:28:04.685Z,5.35714
2023-03-11T16:29:18.228Z,5.35714
2023-03-11T16:30:04.764Z,5.35714
2023-03-11T16:31:04.800Z,5.35714
2023-03-11T16:32:04.831Z,5.35714
2023-03-11T16:33:05.364Z,5.35714
2023-03-11T16:34:04.916Z,5.35714
2023-03-11T16:35:05.686Z,5.28571
2023-03-11T16:36:05.075Z,5.28571
2023-03-11T16:37:05.031Z,5.28571
2023-03-11T16:38:05.071Z,5.28571
2023-03-11T16:39:05.103Z,5.28571
2023-03-11T16:40:05.138Z,5.28571
2023-03-11T16:41:05.170Z,5.28571
2023-03-11T16:42:05.210Z,5.21429
2023-03-11T16:43:05.271Z,5.21429
2023-03-11T16:44:05.288Z,5.21429
2023-03-11T16:45:05.311Z,5.14286
2023-03-11T16:46:05.492Z,5.14286
2023-03-11T16:47:05.383Z,5.14286
2023-03-11T16:48:05.429Z,5.14286
2023-03-11T16:49:05.502Z,5.14286
2023-03-11T16:50:05.496Z,5.07143
2023-03-11T16:51:05.541Z,5.07143
2023-03-11T16:52:05.605Z,5.07143
2023-03-11T16:53:05.589Z,5.07143
2023-03-11T16:54:05.645Z,5.07143
2023-03-11T16:55:05.669Z,5
2023-03-11T16:56:05.705Z,5
2023-03-11T16:57:05.749Z,5
2023-03-11T16:58:05.777Z,4.92857
2023-03-11T16:59:05.814Z,4.92857
2023-03-11T17:00:05.875Z,4.92857
2023-03-11T17:01:05.888Z,4.92857
2023-03-11T17:02:05.966Z,4.92857
2023-03-11T17:03:05.975Z,4.85714
2023-03-11T17:04:05.997Z,4.85714
2023-03-11T17:05:06.104Z,4.85714
2023-03-11T17:06:06.068Z,4.78571
2023-03-11T17:07:06.111Z,4.78571
2023-03-11T17:08:06.137Z,4.78571
2023-03-11T17:09:06.177Z,4.78571
2023-03-11T17:10:06.221Z,4.78571
2023-03-11T17:11:06.257Z,4.71429
2023-03-11T17:12:06.270Z,4.71429
2023-03-11T17:13:06.331Z,4.71429
2023-03-11T17:14:15.507Z,4.71429
2023-03-11T17:15:06.397Z,4.64286
2023-03-11T17:16:06.442Z,4.64286
2023-03-11T17:17:06.469Z,4.64286
2023-03-11T17:18:06.496Z,4.64286
2023-03-11T17:19:06.522Z,4.64286
2023-03-11T17:20:06.565Z,4.64286
2023-03-11T17:21:06.609Z,4.57143
2023-03-11T17:22:06.641Z,4.57143
2023-03-11T17:23:06.677Z,4.57143
2023-03-11T17:24:06.701Z,4.57143
2023-03-11T17:25:06.746Z,4.5
2023-03-11T17:26:06.777Z,4.5
2023-03-11T17:27:06.820Z,4.5
2023-03-11T17:28:06.847Z,4.5
2023-03-11T17:29:06.890Z,4.5
2023-03-11T17:30:06.919Z,4.5
2023-03-11T17:31:07.018Z,4.5
2023-03-11T17:32:07.022Z,4.5
2023-03-11T17:33:07.038Z,4.42857
2023-03-11T17:34:07.113Z,4.42857
2023-03-11T17:35:07.115Z,4.42857
2023-03-11T17:36:07.215Z,4.42857
2023-03-11T17:37:07.191Z,4.35714
2023-03-11T17:38:07.213Z,4.35714
2023-03-11T17:39:07.255Z,4.35714
2023-03-11T17:40:07.297Z,4.35714
2023-03-11T17:41:07.328Z,4.35714
2023-03-11T17:42:07.379Z,4.28571
2023-03-11T17:43:07.412Z,4.28571
2023-03-11T17:44:07.448Z,4.28571
2023-03-11T17:45:07.489Z,4.28571
2023-03-11T17:46:07.531Z,4.28571
2023-03-11T17:47:07.668Z,4.28571
2023-03-11T17:48:07.611Z,4.28571
2023-03-11T17:49:07.691Z,4.21429
2023-03-11T17:50:07.680Z,4.21429
2023-03-11T17:51:07.709Z,4.21429
2023-03-11T17:52:07.756Z,4.28571
2023-03-11T17:53:07.796Z,4.21429
2023-03-11T17:54:07.839Z,4.21429
2023-03-11T17:55:07.857Z,4.21429
2023-03-11T17:56:07.899Z,4.21429
2023-03-11T17:57:07.929Z,4.21429
2023-03-11T17:58:07.981Z,4.21429
2023-03-11T17:59:08.020Z,4.21429
2023-03-11T18:00:08.056Z,4.14286
2023-03-11T18:01:08.096Z,4.14286
2023-03-11T18:02:08.198Z,4.14286
2023-03-11T18:03:08.160Z,4.14286
2023-03-11T18:04:08.248Z,4.14286
2023-03-11T18:05:08.226Z,4.14286
2023-03-11T18:06:08.265Z,4.07143
2023-03-11T18:07:08.305Z,4.07143
2023-03-11T18:08:08.338Z,4.07143
2023-03-11T18:09:08.384Z,4.07143
2023-03-11T18:10:08.427Z,4.07143
2023-03-11T18:11:08.457Z,4.07143
2023-03-11T18:12:08.493Z,4
2023-03-11T18:13:08.529Z,4
2023-03-11T18:14:08.569Z,4
2023-03-11T18:15:08.601Z,4
2023-03-11T18:16:08.654Z,4
2023-03-11T18:17:08.699Z,4
2023-03-11T18:18:08.714Z,4
2023-03-11T18:19:08.786Z,4
2023-03-11T18:20:08.799Z,4
2023-03-11T18:21:08.842Z,4
2023-03-11T18:22:08.881Z,4
2023-03-11T18:23:08.916Z,4
2023-03-11T18:24:08.954Z,3.92857
2023-03-11T18:25:08.978Z,3.92857
2023-03-11T18:26:09.023Z,3.92857
2023-03-11T18:27:09.062Z,3.92857
2023-03-11T18:28:09.098Z,3.92857
2023-03-11T18:29:09.139Z,3.92857
2023-03-11T18:30:09.184Z,3.92857
2023-03-11T18:31:09.215Z,3.85714
2023-03-11T18:32:09.311Z,3.85714
2023-03-11T18:33:09.290Z,3.85714
2023-03-11T18:34:09.327Z,3.85714
2023-03-11T18:35:09.361Z,3.85714
2023-03-11T18:36:09.472Z,3.85714
2023-03-11T18:37:09.435Z,3.85714
2023-03-11T18:38:09.478Z,3.85714
2023-03-11T18:39:09.507Z,3.85714
2023-03-11T18:40:09.540Z,3.85714
2023-03-11T18:41:09.583Z,3.78571
2023-03-11T18:42:09.620Z,3.78571
2023-03-11T18:43:09.656Z,3.78571
2023-03-11T18:44:09.696Z,3.78571
2023-03-11T18:45:09.730Z,3.78571
2023-03-11T18:46:09.788Z,3.78571
2023-03-11T18:47:09.805Z,3.78571
2023-03-11T18:48:09.849Z,3.78571
2023-03-11T18:49:09.879Z,3.78571
2023-03-11T18:50:09.928Z,3.78571
2023-03-11T18:51:09.953Z,3.78571
2023-03-11T18:52:09.999Z,3.78571
2023-03-11T18:53:10.033Z,3.78571
2023-03-11T18:54:10.060Z,3.71429
2023-03-11T18:55:10.112Z,3.71429
2023-03-11T18:56:10.151Z,3.71429
2023-03-11T18:57:10.194Z,3.71429
2023-03-11T18:58:10.228Z,3.71429
2023-03-11T18:59:10.252Z,3.71429
2023-03-11T19:00:10.283Z,3.71429
2023-03-11T19:01:10.436Z,3.71429
2023-03-11T19:02:10.363Z,3.71429
2023-03-11T19:03:10.396Z,3.71429
2023-03-11T19:04:10.443Z,3.71429
2023-03-11T19:05:10.543Z,3.71429
2023-03-11T19:06:10.517Z,3.71429
2023-03-11T19:07:10.553Z,3.64286
2023-03-11T19:08:10.579Z,3.64286
2023-03-11T19:09:10.628Z,3.64286
2023-03-11T19:10:10.655Z,3.64286
2023-03-11T19:11:10.691Z,3.64286
2023-03-11T19:12:10.722Z,3.64286